sensor_id;sensor_type;location;lat;lon;timestamp;P1;durP1;ratioP1;P2;durP2;ratioP2
81056;SDS011;70563;50.084;14.468;2023-10-31T00:00:15;10.43;;;7.15;;
81056;SDS011;70563;50.084;14.468;2023-10-31T00:02:41;18.15;;;9.02;;
81056;SDS011;70563;50.084;14.468;2023-10-31T00:05:06;11.10;;;6.95;;
81056;SDS011;70563;50.084;14.468;2023-10-31T00:07:31;11.75;;;6.18;;
81056;SDS011;70563;50.084;14.468;2023-10-31T00:09:57;11.98;;;7.78;;
81056;SDS011;70563;50.084;14.468;2023-10-31T00:12:22;13.88;;;7.60;;
81056;SDS011;70563;50.084;14.468;2023-10-31T00:14:47;10.85;;;7.13;;
81056;SDS011;70563;50.084;14.468;2023-10-31T00:17:13;11.57;;;7.03;;
81056;SDS011;70563;50.084;14.468;2023-10-31T00:19:38;12.48;;;7.07;;
81056;SDS011;70563;50.084;14.468;2023-10-31T00:22:03;11.77;;;6.60;;
81056;SDS011;70563;50.084;14.468;2023-10-31T00:24:30;11.88;;;7.72;;
81056;SDS011;70563;50.084;14.468;2023-10-31T00:26:57;11.25;;;7.40;;
81056;SDS011;70563;50.084;14.468;2023-10-31T00:29:22;11.30;;;8.48;;
81056;SDS011;70563;50.084;14.468;2023-10-31T00:31:47;14.65;;;8.85;;
81056;SDS011;70563;50.084;14.468;2023-10-31T00:34:13;13.57;;;8.85;;
81056;SDS011;70563;50.084;14.468;2023-10-31T00:36:38;14.27;;;8.80;;
81056;SDS011;70563;50.084;14.468;2023-10-31T00:39:04;13.60;;;9.15;;
81056;SDS011;70563;50.084;14.468;2023-10-31T00:41:30;14.30;;;9.02;;
81056;SDS011;70563;50.084;14.468;2023-10-31T00:43:55;12.75;;;8.20;;
81056;SDS011;70563;50.084;14.468;2023-10-31T00:46:21;14.30;;;9.05;;
81056;SDS011;70563;50.084;14.468;2023-10-31T00:48:46;14.00;;;8.50;;
81056;SDS011;70563;50.084;14.468;2023-10-31T00:51:12;15.30;;;9.20;;
81056;SDS011;70563;50.084;14.468;2023-10-31T00:53:37;14.48;;;9.63;;
81056;SDS011;70563;50.084;14.468;2023-10-31T00:56:03;14.90;;;9.30;;
81056;SDS011;70563;50.084;14.468;2023-10-31T00:58:29;13.95;;;8.52;;
81056;SDS011;70563;50.084;14.468;2023-10-31T01:00:54;13.05;;;9.27;;
81056;SDS011;70563;50.084;14.468;2023-10-31T01:03:19;14.55;;;8.88;;
81056;SDS011;70563;50.084;14.468;2023-10-31T01:05:45;14.80;;;8.73;;
81056;SDS011;70563;50.084;14.468;2023-10-31T01:08:10;13.00;;;8.27;;
81056;SDS011;70563;50.084;14.468;2023-10-31T01:10:36;15.27;;;9.00;;
81056;SDS011;70563;50.084;14.468;2023-10-31T01:13:01;12.35;;;8.70;;
81056;SDS011;70563;50.084;14.468;2023-10-31T01:15:26;12.00;;;7.82;;
81056;SDS011;70563;50.084;14.468;2023-10-31T01:17:51;13.57;;;7.93;;
81056;SDS011;70563;50.084;14.468;2023-10-31T01:20:17;13.23;;;7.07;;
81056;SDS011;70563;50.084;14.468;2023-10-31T01:22:42;11.40;;;7.20;;
81056;SDS011;70563;50.084;14.468;2023-10-31T01:25:08;10.32;;;8.05;;
81056;SDS011;70563;50.084;14.468;2023-10-31T01:27:33;7.85;;;6.32;;
81056;SDS011;70563;50.084;14.468;2023-10-31T01:29:58;16.80;;;7.32;;
81056;SDS011;70563;50.084;14.468;2023-10-31T01:32:24;9.85;;;7.57;;
81056;SDS011;70563;50.084;14.468;2023-10-31T01:34:49;13.13;;;8.10;;
81056;SDS011;70563;50.084;14.468;2023-10-31T01:37:15;12.82;;;7.40;;
81056;SDS011;70563;50.084;14.468;2023-10-31T01:39:40;10.90;;;6.97;;
81056;SDS011;70563;50.084;14.468;2023-10-31T01:42:06;10.70;;;7.15;;
81056;SDS011;70563;50.084;14.468;2023-10-31T01:44:31;11.00;;;6.82;;
81056;SDS011;70563;50.084;14.468;2023-10-31T01:46:57;10.88;;;7.18;;
81056;SDS011;70563;50.084;14.468;2023-10-31T01:49:22;10.85;;;7.35;;
81056;SDS011;70563;50.084;14.468;2023-10-31T01:51:48;10.32;;;7.90;;
81056;SDS011;70563;50.084;14.468;2023-10-31T01:54:14;12.77;;;7.28;;
81056;SDS011;70563;50.084;14.468;2023-10-31T01:56:39;13.95;;;7.22;;
81056;SDS011;70563;50.084;14.468;2023-10-31T01:59:06;10.57;;;7.60;;
81056;SDS011;70563;50.084;14.468;2023-10-31T02:01:40;11.30;;;7.97;;
81056;SDS011;70563;50.084;14.468;2023-10-31T02:04:06;11.32;;;7.75;;
81056;SDS011;70563;50.084;14.468;2023-10-31T02:06:32;13.02;;;7.45;;
81056;SDS011;70563;50.084;14.468;2023-10-31T02:08:57;12.38;;;7.57;;
81056;SDS011;70563;50.084;14.468;2023-10-31T02:11:22;12.75;;;8.05;;
81056;SDS011;70563;50.084;14.468;2023-10-31T02:13:48;12.13;;;7.70;;
81056;SDS011;70563;50.084;14.468;2023-10-31T02:16:13;9.73;;;6.85;;
81056;SDS011;70563;50.084;14.468;2023-10-31T02:18:39;12.85;;;6.90;;
81056;SDS011;70563;50.084;14.468;2023-10-31T02:21:04;9.25;;;6.00;;
81056;SDS011;70563;50.084;14.468;2023-10-31T02:23:29;10.68;;;6.38;;
81056;SDS011;70563;50.084;14.468;2023-10-31T02:25:55;7.38;;;5.05;;
81056;SDS011;70563;50.084;14.468;2023-10-31T02:28:20;6.38;;;5.30;;
81056;SDS011;70563;50.084;14.468;2023-10-31T02:30:46;8.55;;;5.13;;
81056;SDS011;70563;50.084;14.468;2023-10-31T02:33:11;8.23;;;5.10;;
81056;SDS011;70563;50.084;14.468;2023-10-31T02:35:36;9.57;;;5.72;;
81056;SDS011;70563;50.084;14.468;2023-10-31T02:38:02;9.57;;;5.38;;
81056;SDS011;70563;50.084;14.468;2023-10-31T02:40:27;9.77;;;6.80;;
81056;SDS011;70563;50.084;14.468;2023-10-31T02:42:53;8.95;;;5.10;;
81056;SDS011;70563;50.084;14.468;2023-10-31T02:45:18;8.05;;;4.80;;
81056;SDS011;70563;50.084;14.468;2023-10-31T02:47:43;9.95;;;5.35;;
81056;SDS011;70563;50.084;14.468;2023-10-31T02:50:09;9.75;;;5.88;;
81056;SDS011;70563;50.084;14.468;2023-10-31T02:52:34;9.02;;;5.35;;
81056;SDS011;70563;50.084;14.468;2023-10-31T02:55:01;8.65;;;5.35;;
81056;SDS011;70563;50.084;14.468;2023-10-31T02:57:27;10.00;;;5.55;;
81056;SDS011;70563;50.084;14.468;2023-10-31T02:59:52;9.10;;;5.50;;
81056;SDS011;70563;50.084;14.468;2023-10-31T03:02:18;8.65;;;5.80;;
81056;SDS011;70563;50.084;14.468;2023-10-31T03:04:43;8.18;;;5.55;;
81056;SDS011;70563;50.084;14.468;2023-10-31T03:07:08;10.45;;;6.28;;
81056;SDS011;70563;50.084;14.468;2023-10-31T03:09:34;10.00;;;6.07;;
81056;SDS011;70563;50.084;14.468;2023-10-31T03:11:59;10.82;;;6.82;;
81056;SDS011;70563;50.084;14.468;2023-10-31T03:14:24;8.90;;;5.93;;
81056;SDS011;70563;50.084;14.468;2023-10-31T03:16:50;9.85;;;6.40;;
81056;SDS011;70563;50.084;14.468;2023-10-31T03:19:15;8.63;;;6.57;;
81056;SDS011;70563;50.084;14.468;2023-10-31T03:21:40;11.45;;;7.35;;
81056;SDS011;70563;50.084;14.468;2023-10-31T03:24:06;10.70;;;6.82;;
81056;SDS011;70563;50.084;14.468;2023-10-31T03:26:31;10.05;;;6.55;;
81056;SDS011;70563;50.084;14.468;2023-10-31T03:28:57;10.35;;;7.15;;
81056;SDS011;70563;50.084;14.468;2023-10-31T03:31:22;12.32;;;7.32;;
81056;SDS011;70563;50.084;14.468;2023-10-31T03:33:49;10.98;;;8.00;;
81056;SDS011;70563;50.084;14.468;2023-10-31T03:36:14;14.25;;;8.30;;
81056;SDS011;70563;50.084;14.468;2023-10-31T03:38:40;11.98;;;8.05;;
81056;SDS011;70563;50.084;14.468;2023-10-31T03:41:06;11.55;;;7.03;;
81056;SDS011;70563;50.084;14.468;2023-10-31T03:43:31;14.00;;;8.65;;
81056;SDS011;70563;50.084;14.468;2023-10-31T03:45:57;11.77;;;7.63;;
81056;SDS011;70563;50.084;14.468;2023-10-31T03:48:22;12.80;;;7.85;;
81056;SDS011;70563;50.084;14.468;2023-10-31T03:50:47;11.23;;;7.57;;
81056;SDS011;70563;50.084;14.468;2023-10-31T03:53:14;14.02;;;7.85;;
81056;SDS011;70563;50.084;14.468;2023-10-31T03:55:40;11.57;;;7.95;;
81056;SDS011;70563;50.084;14.468;2023-10-31T03:58:05;10.68;;;7.47;;
81056;SDS011;70563;50.084;14.468;2023-10-31T04:00:31;9.00;;;6.82;;
81056;SDS011;70563;50.084;14.468;2023-10-31T04:02:56;10.50;;;7.25;;
81056;SDS011;70563;50.084;14.468;2023-10-31T04:05:22;10.95;;;7.53;;
81056;SDS011;70563;50.084;14.468;2023-10-31T04:07:48;11.40;;;8.35;;
81056;SDS011;70563;50.084;14.468;2023-10-31T04:10:13;9.68;;;7.22;;
81056;SDS011;70563;50.084;14.468;2023-10-31T04:12:40;10.70;;;7.30;;
81056;SDS011;70563;50.084;14.468;2023-10-31T04:15:06;11.05;;;7.72;;
81056;SDS011;70563;50.084;14.468;2023-10-31T04:17:32;11.57;;;6.63;;
81056;SDS011;70563;50.084;14.468;2023-10-31T04:19:58;7.78;;;5.60;;
81056;SDS011;70563;50.084;14.468;2023-10-31T04:22:23;8.43;;;5.90;;
81056;SDS011;70563;50.084;14.468;2023-10-31T04:24:48;9.30;;;6.40;;
81056;SDS011;70563;50.084;14.468;2023-10-31T04:27:14;8.02;;;5.53;;
81056;SDS011;70563;50.084;14.468;2023-10-31T04:29:39;7.35;;;5.35;;
81056;SDS011;70563;50.084;14.468;2023-10-31T04:32:05;7.80;;;5.35;;
81056;SDS011;70563;50.084;14.468;2023-10-31T04:34:30;7.60;;;5.50;;
81056;SDS011;70563;50.084;14.468;2023-10-31T04:36:56;6.68;;;5.00;;
81056;SDS011;70563;50.084;14.468;2023-10-31T04:39:21;6.35;;;4.85;;
81056;SDS011;70563;50.084;14.468;2023-10-31T04:41:47;5.90;;;4.82;;
81056;SDS011;70563;50.084;14.468;2023-10-31T04:44:12;5.32;;;4.07;;
81056;SDS011;70563;50.084;14.468;2023-10-31T04:46:38;5.50;;;4.18;;
81056;SDS011;70563;50.084;14.468;2023-10-31T04:49:04;7.70;;;4.45;;
81056;SDS011;70563;50.084;14.468;2023-10-31T04:51:33;6.50;;;4.47;;
81056;SDS011;70563;50.084;14.468;2023-10-31T04:54:01;5.68;;;3.83;;
81056;SDS011;70563;50.084;14.468;2023-10-31T04:56:27;4.93;;;3.38;;
81056;SDS011;70563;50.084;14.468;2023-10-31T04:58:53;6.05;;;4.03;;
81056;SDS011;70563;50.084;14.468;2023-10-31T05:01:18;3.53;;;3.03;;
81056;SDS011;70563;50.084;14.468;2023-10-31T05:03:44;3.53;;;2.78;;
81056;SDS011;70563;50.084;14.468;2023-10-31T05:06:10;4.07;;;3.10;;
81056;SDS011;70563;50.084;14.468;2023-10-31T05:08:35;3.75;;;3.10;;
81056;SDS011;70563;50.084;14.468;2023-10-31T05:11:00;5.00;;;3.40;;
81056;SDS011;70563;50.084;14.468;2023-10-31T05:13:26;4.40;;;3.33;;
81056;SDS011;70563;50.084;14.468;2023-10-31T05:15:51;4.43;;;2.85;;
81056;SDS011;70563;50.084;14.468;2023-10-31T05:18:17;4.03;;;2.63;;
81056;SDS011;70563;50.084;14.468;2023-10-31T05:20:42;2.92;;;2.40;;
81056;SDS011;70563;50.084;14.468;2023-10-31T05:23:08;3.13;;;2.42;;
81056;SDS011;70563;50.084;14.468;2023-10-31T05:25:33;4.88;;;2.70;;
81056;SDS011;70563;50.084;14.468;2023-10-31T05:27:59;2.65;;;2.33;;
81056;SDS011;70563;50.084;14.468;2023-10-31T05:30:25;3.60;;;2.63;;
81056;SDS011;70563;50.084;14.468;2023-10-31T05:32:50;2.42;;;2.22;;
81056;SDS011;70563;50.084;14.468;2023-10-31T05:37:43;2.33;;;2.00;;
81056;SDS011;70563;50.084;14.468;2023-10-31T05:40:10;2.40;;;1.80;;
81056;SDS011;70563;50.084;14.468;2023-10-31T05:42:36;2.03;;;1.75;;
81056;SDS011;70563;50.084;14.468;2023-10-31T05:45:02;3.47;;;1.65;;
81056;SDS011;70563;50.084;14.468;2023-10-31T05:47:28;3.00;;;1.52;;
81056;SDS011;70563;50.084;14.468;2023-10-31T05:49:53;2.42;;;1.50;;
81056;SDS011;70563;50.084;14.468;2023-10-31T05:52:19;2.10;;;1.70;;
81056;SDS011;70563;50.084;14.468;2023-10-31T05:54:44;1.98;;;1.67;;
81056;SDS011;70563;50.084;14.468;2023-10-31T05:57:09;2.95;;;1.50;;
81056;SDS011;70563;50.084;14.468;2023-10-31T05:59:35;1.35;;;1.00;;
81056;SDS011;70563;50.084;14.468;2023-10-31T06:02:00;3.03;;;1.35;;
81056;SDS011;70563;50.084;14.468;2023-10-31T06:04:25;1.65;;;1.30;;
81056;SDS011;70563;50.084;14.468;2023-10-31T06:06:51;1.17;;;1.05;;
81056;SDS011;70563;50.084;14.468;2023-10-31T06:09:17;1.63;;;1.30;;
81056;SDS011;70563;50.084;14.468;2023-10-31T06:11:42;2.50;;;1.00;;
81056;SDS011;70563;50.084;14.468;2023-10-31T06:14:09;1.92;;;1.17;;
81056;SDS011;70563;50.084;14.468;2023-10-31T06:16:41;2.60;;;1.35;;
81056;SDS011;70563;50.084;14.468;2023-10-31T06:19:07;1.23;;;1.00;;
81056;SDS011;70563;50.084;14.468;2023-10-31T06:21:32;1.75;;;0.85;;
81056;SDS011;70563;50.084;14.468;2023-10-31T06:23:57;1.10;;;0.90;;
81056;SDS011;70563;50.084;14.468;2023-10-31T06:26:23;1.45;;;1.05;;
81056;SDS011;70563;50.084;14.468;2023-10-31T06:28:48;1.50;;;0.80;;
81056;SDS011;70563;50.084;14.468;2023-10-31T06:31:13;2.85;;;0.93;;
81056;SDS011;70563;50.084;14.468;2023-10-31T06:33:39;1.20;;;0.80;;
81056;SDS011;70563;50.084;14.468;2023-10-31T06:36:04;2.42;;;1.13;;
81056;SDS011;70563;50.084;14.468;2023-10-31T06:38:31;1.00;;;0.70;;
81056;SDS011;70563;50.084;14.468;2023-10-31T06:40:57;1.05;;;0.82;;
81056;SDS011;70563;50.084;14.468;2023-10-31T06:43:22;1.75;;;0.93;;
81056;SDS011;70563;50.084;14.468;2023-10-31T06:45:47;0.45;;;0.40;;
81056;SDS011;70563;50.084;14.468;2023-10-31T06:48:12;6.35;;;1.55;;
81056;SDS011;70563;50.084;14.468;2023-10-31T06:50:38;1.88;;;0.55;;
81056;SDS011;70563;50.084;14.468;2023-10-31T06:53:03;0.88;;;0.65;;
81056;SDS011;70563;50.084;14.468;2023-10-31T06:55:28;1.00;;;0.60;;
81056;SDS011;70563;50.084;14.468;2023-10-31T06:57:54;3.35;;;0.80;;
81056;SDS011;70563;50.084;14.468;2023-10-31T07:00:19;0.88;;;0.55;;
81056;SDS011;70563;50.084;14.468;2023-10-31T07:02:45;1.55;;;0.90;;
81056;SDS011;70563;50.084;14.468;2023-10-31T07:05:12;1.80;;;0.70;;
81056;SDS011;70563;50.084;14.468;2023-10-31T07:07:39;1.17;;;0.55;;
81056;SDS011;70563;50.084;14.468;2023-10-31T07:10:04;1.40;;;0.50;;
81056;SDS011;70563;50.084;14.468;2023-10-31T07:12:30;0.68;;;0.50;;
81056;SDS011;70563;50.084;14.468;2023-10-31T07:14:55;1.33;;;0.70;;
81056;SDS011;70563;50.084;14.468;2023-10-31T07:17:23;3.65;;;0.73;;
81056;SDS011;70563;50.084;14.468;2023-10-31T07:19:49;3.00;;;1.35;;
81056;SDS011;70563;50.084;14.468;2023-10-31T07:22:14;4.35;;;1.02;;
81056;SDS011;70563;50.084;14.468;2023-10-31T07:24:40;1.13;;;0.88;;
81056;SDS011;70563;50.084;14.468;2023-10-31T07:27:05;1.63;;;0.80;;
81056;SDS011;70563;50.084;14.468;2023-10-31T07:29:31;2.83;;;1.40;;
81056;SDS011;70563;50.084;14.468;2023-10-31T07:31:56;2.63;;;1.50;;
81056;SDS011;70563;50.084;14.468;2023-10-31T07:34:22;3.05;;;0.85;;
81056;SDS011;70563;50.084;14.468;2023-10-31T07:36:47;3.30;;;1.02;;
81056;SDS011;70563;50.084;14.468;2023-10-31T07:39:12;1.13;;;0.68;;
81056;SDS011;70563;50.084;14.468;2023-10-31T07:41:39;1.48;;;0.90;;
81056;SDS011;70563;50.084;14.468;2023-10-31T07:44:04;1.42;;;0.70;;
81056;SDS011;70563;50.084;14.468;2023-10-31T07:46:31;1.13;;;0.57;;
81056;SDS011;70563;50.084;14.468;2023-10-31T07:48:56;1.63;;;0.60;;
81056;SDS011;70563;50.084;14.468;2023-10-31T07:51:22;1.63;;;0.88;;
81056;SDS011;70563;50.084;14.468;2023-10-31T07:53:47;0.70;;;0.50;;
81056;SDS011;70563;50.084;14.468;2023-10-31T07:56:16;1.35;;;0.90;;
81056;SDS011;70563;50.084;14.468;2023-10-31T07:58:42;1.45;;;0.52;;
81056;SDS011;70563;50.084;14.468;2023-10-31T08:01:08;2.88;;;0.85;;
81056;SDS011;70563;50.084;14.468;2023-10-31T08:03:36;1.92;;;0.98;;
81056;SDS011;70563;50.084;14.468;2023-10-31T08:06:02;1.77;;;0.88;;
81056;SDS011;70563;50.084;14.468;2023-10-31T08:08:30;3.28;;;1.08;;
81056;SDS011;70563;50.084;14.468;2023-10-31T08:10:55;1.92;;;1.05;;
81056;SDS011;70563;50.084;14.468;2023-10-31T08:13:22;3.78;;;1.02;;
81056;SDS011;70563;50.084;14.468;2023-10-31T08:15:47;4.93;;;1.63;;
81056;SDS011;70563;50.084;14.468;2023-10-31T08:18:13;8.70;;;1.70;;
81056;SDS011;70563;50.084;14.468;2023-10-31T08:20:38;4.20;;;1.30;;
81056;SDS011;70563;50.084;14.468;2023-10-31T08:23:04;2.65;;;0.98;;
81056;SDS011;70563;50.084;14.468;2023-10-31T08:25:29;1.35;;;0.55;;
81056;SDS011;70563;50.084;14.468;2023-10-31T08:27:54;1.90;;;0.70;;
81056;SDS011;70563;50.084;14.468;2023-10-31T08:30:20;1.50;;;0.63;;
81056;SDS011;70563;50.084;14.468;2023-10-31T08:32:45;1.65;;;0.80;;
81056;SDS011;70563;50.084;14.468;2023-10-31T08:35:11;1.52;;;0.82;;
81056;SDS011;70563;50.084;14.468;2023-10-31T08:37:36;2.55;;;0.70;;
81056;SDS011;70563;50.084;14.468;2023-10-31T08:40:01;1.02;;;0.60;;
81056;SDS011;70563;50.084;14.468;2023-10-31T08:42:29;1.45;;;0.50;;
81056;SDS011;70563;50.084;14.468;2023-10-31T08:44:55;3.80;;;1.00;;
81056;SDS011;70563;50.084;14.468;2023-10-31T08:47:20;1.10;;;0.57;;
81056;SDS011;70563;50.084;14.468;2023-10-31T08:49:45;1.33;;;0.90;;
81056;SDS011;70563;50.084;14.468;2023-10-31T08:52:11;0.75;;;0.55;;
81056;SDS011;70563;50.084;14.468;2023-10-31T08:54:36;0.75;;;0.55;;
81056;SDS011;70563;50.084;14.468;2023-10-31T08:57:02;1.35;;;0.70;;
81056;SDS011;70563;50.084;14.468;2023-10-31T08:59:27;0.93;;;0.40;;
81056;SDS011;70563;50.084;14.468;2023-10-31T09:01:52;3.75;;;0.50;;
81056;SDS011;70563;50.084;14.468;2023-10-31T09:04:18;2.25;;;0.93;;
81056;SDS011;70563;50.084;14.468;2023-10-31T09:06:43;1.42;;;0.68;;
81056;SDS011;70563;50.084;14.468;2023-10-31T09:09:08;1.63;;;0.75;;
81056;SDS011;70563;50.084;14.468;2023-10-31T09:11:35;2.38;;;0.70;;
81056;SDS011;70563;50.084;14.468;2023-10-31T09:14:00;2.15;;;0.60;;
81056;SDS011;70563;50.084;14.468;2023-10-31T09:16:26;0.98;;;0.50;;
81056;SDS011;70563;50.084;14.468;2023-10-31T09:18:51;1.50;;;0.68;;
81056;SDS011;70563;50.084;14.468;2023-10-31T09:21:17;3.00;;;0.80;;
81056;SDS011;70563;50.084;14.468;2023-10-31T09:23:42;1.58;;;0.40;;
81056;SDS011;70563;50.084;14.468;2023-10-31T09:26:08;1.63;;;1.10;;
81056;SDS011;70563;50.084;14.468;2023-10-31T09:28:33;2.17;;;0.95;;
81056;SDS011;70563;50.084;14.468;2023-10-31T09:31:01;3.58;;;1.92;;
81056;SDS011;70563;50.084;14.468;2023-10-31T09:33:27;2.63;;;0.77;;
81056;SDS011;70563;50.084;14.468;2023-10-31T09:35:52;2.35;;;1.00;;
81056;SDS011;70563;50.084;14.468;2023-10-31T09:38:17;3.83;;;1.80;;
81056;SDS011;70563;50.084;14.468;2023-10-31T09:40:43;3.22;;;1.10;;
81056;SDS011;70563;50.084;14.468;2023-10-31T09:43:08;2.03;;;0.95;;
81056;SDS011;70563;50.084;14.468;2023-10-31T09:45:33;3.22;;;0.90;;
81056;SDS011;70563;50.084;14.468;2023-10-31T09:47:59;3.00;;;1.20;;
81056;SDS011;70563;50.084;14.468;2023-10-31T09:50:26;5.90;;;2.00;;
81056;SDS011;70563;50.084;14.468;2023-10-31T09:52:54;3.15;;;1.25;;
81056;SDS011;70563;50.084;14.468;2023-10-31T09:55:21;3.60;;;1.00;;
81056;SDS011;70563;50.084;14.468;2023-10-31T09:57:47;2.88;;;1.10;;
81056;SDS011;70563;50.084;14.468;2023-10-31T10:00:13;3.22;;;0.70;;
81056;SDS011;70563;50.084;14.468;2023-10-31T10:02:38;1.70;;;0.95;;
81056;SDS011;70563;50.084;14.468;2023-10-31T10:05:04;1.65;;;0.80;;
81056;SDS011;70563;50.084;14.468;2023-10-31T10:07:30;1.88;;;0.80;;
81056;SDS011;70563;50.084;14.468;2023-10-31T10:09:58;2.10;;;1.05;;
81056;SDS011;70563;50.084;14.468;2023-10-31T10:12:25;1.20;;;0.82;;
81056;SDS011;70563;50.084;14.468;2023-10-31T10:14:52;1.70;;;0.73;;
81056;SDS011;70563;50.084;14.468;2023-10-31T10:17:21;4.82;;;0.90;;
81056;SDS011;70563;50.084;14.468;2023-10-31T10:19:48;2.05;;;0.80;;
81056;SDS011;70563;50.084;14.468;2023-10-31T10:22:39;1.92;;;0.63;;
81056;SDS011;70563;50.084;14.468;2023-10-31T10:27:34;1.02;;;0.55;;
81056;SDS011;70563;50.084;14.468;2023-10-31T10:30:01;1.17;;;0.50;;
81056;SDS011;70563;50.084;14.468;2023-10-31T10:32:26;1.90;;;0.80;;
81056;SDS011;70563;50.084;14.468;2023-10-31T10:34:52;0.57;;;0.50;;
81056;SDS011;70563;50.084;14.468;2023-10-31T10:37:19;2.88;;;0.88;;
81056;SDS011;70563;50.084;14.468;2023-10-31T10:39:47;1.08;;;0.65;;
81056;SDS011;70563;50.084;14.468;2023-10-31T10:42:13;1.50;;;0.85;;
81056;SDS011;70563;50.084;14.468;2023-10-31T10:47:09;1.35;;;0.70;;
81056;SDS011;70563;50.084;14.468;2023-10-31T10:49:37;1.15;;;0.65;;
81056;SDS011;70563;50.084;14.468;2023-10-31T10:52:22;0.70;;;0.52;;
81056;SDS011;70563;50.084;14.468;2023-10-31T10:54:52;1.70;;;0.60;;
81056;SDS011;70563;50.084;14.468;2023-10-31T10:57:28;2.08;;;1.15;;
81056;SDS011;70563;50.084;14.468;2023-10-31T11:00:01;1.00;;;0.60;;
81056;SDS011;70563;50.084;14.468;2023-10-31T11:02:29;1.17;;;0.80;;
81056;SDS011;70563;50.084;14.468;2023-10-31T11:04:55;2.50;;;0.80;;
81056;SDS011;70563;50.084;14.468;2023-10-31T11:07:21;1.38;;;0.60;;
81056;SDS011;70563;50.084;14.468;2023-10-31T11:09:48;1.20;;;0.70;;
81056;SDS011;70563;50.084;14.468;2023-10-31T11:12:14;1.65;;;0.57;;
81056;SDS011;70563;50.084;14.468;2023-10-31T11:14:41;1.40;;;0.60;;
81056;SDS011;70563;50.084;14.468;2023-10-31T11:17:11;3.80;;;1.02;;
81056;SDS011;70563;50.084;14.468;2023-10-31T11:19:56;1.85;;;0.77;;
81056;SDS011;70563;50.084;14.468;2023-10-31T11:22:22;1.02;;;0.52;;
81056;SDS011;70563;50.084;14.468;2023-10-31T11:24:50;0.85;;;0.50;;
81056;SDS011;70563;50.084;14.468;2023-10-31T11:27:16;1.38;;;0.47;;
81056;SDS011;70563;50.084;14.468;2023-10-31T11:29:42;1.10;;;0.60;;
81056;SDS011;70563;50.084;14.468;2023-10-31T11:32:09;1.80;;;0.70;;
81056;SDS011;70563;50.084;14.468;2023-10-31T11:34:36;2.78;;;1.50;;
81056;SDS011;70563;50.084;14.468;2023-10-31T11:37:18;1.00;;;0.80;;
81056;SDS011;70563;50.084;14.468;2023-10-31T11:42:56;2.63;;;1.00;;
81056;SDS011;70563;50.084;14.468;2023-10-31T11:47:55;1.55;;;0.80;;
81056;SDS011;70563;50.084;14.468;2023-10-31T11:50:21;0.90;;;0.60;;
81056;SDS011;70563;50.084;14.468;2023-10-31T11:55:32;1.65;;;0.68;;
81056;SDS011;70563;50.084;14.468;2023-10-31T11:58:11;2.95;;;0.93;;
81056;SDS011;70563;50.084;14.468;2023-10-31T12:00:58;1.58;;;0.70;;
81056;SDS011;70563;50.084;14.468;2023-10-31T12:03:39;2.10;;;0.70;;
81056;SDS011;70563;50.084;14.468;2023-10-31T12:06:07;2.05;;;0.73;;
81056;SDS011;70563;50.084;14.468;2023-10-31T12:08:35;1.15;;;0.70;;
81056;SDS011;70563;50.084;14.468;2023-10-31T12:13:37;1.60;;;0.82;;
81056;SDS011;70563;50.084;14.468;2023-10-31T12:16:05;1.48;;;0.55;;
81056;SDS011;70563;50.084;14.468;2023-10-31T12:18:32;1.95;;;1.10;;
81056;SDS011;70563;50.084;14.468;2023-10-31T12:21:01;5.70;;;1.40;;
81056;SDS011;70563;50.084;14.468;2023-10-31T12:23:27;1.85;;;0.82;;
81056;SDS011;70563;50.084;14.468;2023-10-31T12:25:53;1.38;;;0.70;;
81056;SDS011;70563;50.084;14.468;2023-10-31T12:28:22;2.33;;;1.50;;
81056;SDS011;70563;50.084;14.468;2023-10-31T12:30:51;1.48;;;0.95;;
81056;SDS011;70563;50.084;14.468;2023-10-31T12:33:24;2.28;;;0.45;;
81056;SDS011;70563;50.084;14.468;2023-10-31T12:35:52;2.17;;;0.85;;
81056;SDS011;70563;50.084;14.468;2023-10-31T12:40:46;1.27;;;0.70;;
81056;SDS011;70563;50.084;14.468;2023-10-31T12:43:12;1.50;;;0.80;;
81056;SDS011;70563;50.084;14.468;2023-10-31T12:45:38;1.80;;;0.70;;
81056;SDS011;70563;50.084;14.468;2023-10-31T12:48:04;1.45;;;0.60;;
81056;SDS011;70563;50.084;14.468;2023-10-31T12:50:32;1.05;;;0.70;;
81056;SDS011;70563;50.084;14.468;2023-10-31T12:52:58;2.92;;;0.93;;
81056;SDS011;70563;50.084;14.468;2023-10-31T12:55:25;1.17;;;0.73;;
81056;SDS011;70563;50.084;14.468;2023-10-31T12:57:52;1.00;;;0.70;;
81056;SDS011;70563;50.084;14.468;2023-10-31T13:00:20;3.60;;;1.20;;
81056;SDS011;70563;50.084;14.468;2023-10-31T13:03:00;3.90;;;0.80;;
81056;SDS011;70563;50.084;14.468;2023-10-31T13:05:27;4.18;;;0.73;;
81056;SDS011;70563;50.084;14.468;2023-10-31T13:07:54;2.55;;;0.90;;
81056;SDS011;70563;50.084;14.468;2023-10-31T13:10:23;2.30;;;0.90;;
81056;SDS011;70563;50.084;14.468;2023-10-31T13:12:50;1.00;;;0.80;;
81056;SDS011;70563;50.084;14.468;2023-10-31T13:15:16;1.30;;;0.80;;
81056;SDS011;70563;50.084;14.468;2023-10-31T13:17:43;3.20;;;0.80;;
81056;SDS011;70563;50.084;14.468;2023-10-31T13:20:09;2.63;;;0.70;;
81056;SDS011;70563;50.084;14.468;2023-10-31T13:22:37;0.90;;;0.70;;
81056;SDS011;70563;50.084;14.468;2023-10-31T13:25:04;3.85;;;1.52;;
81056;SDS011;70563;50.084;14.468;2023-10-31T13:27:30;0.93;;;0.70;;
81056;SDS011;70563;50.084;14.468;2023-10-31T13:29:56;2.70;;;0.88;;
81056;SDS011;70563;50.084;14.468;2023-10-31T13:32:22;1.50;;;0.82;;
81056;SDS011;70563;50.084;14.468;2023-10-31T13:34:51;6.30;;;1.02;;
81056;SDS011;70563;50.084;14.468;2023-10-31T13:37:16;3.17;;;0.90;;
81056;SDS011;70563;50.084;14.468;2023-10-31T13:39:41;1.17;;;0.80;;
81056;SDS011;70563;50.084;14.468;2023-10-31T13:42:08;1.98;;;0.85;;
81056;SDS011;70563;50.084;14.468;2023-10-31T13:44:35;1.10;;;0.73;;
81056;SDS011;70563;50.084;14.468;2023-10-31T13:47:01;3.30;;;1.02;;
81056;SDS011;70563;50.084;14.468;2023-10-31T13:49:27;1.65;;;0.90;;
81056;SDS011;70563;50.084;14.468;2023-10-31T13:51:53;3.08;;;1.13;;
81056;SDS011;70563;50.084;14.468;2023-10-31T13:54:18;2.22;;;1.10;;
81056;SDS011;70563;50.084;14.468;2023-10-31T13:56:44;4.00;;;1.80;;
81056;SDS011;70563;50.084;14.468;2023-10-31T13:59:10;3.08;;;1.20;;
81056;SDS011;70563;50.084;14.468;2023-10-31T14:01:36;2.47;;;0.85;;
81056;SDS011;70563;50.084;14.468;2023-10-31T14:04:04;1.88;;;0.90;;
81056;SDS011;70563;50.084;14.468;2023-10-31T14:06:29;3.45;;;1.10;;
81056;SDS011;70563;50.084;14.468;2023-10-31T14:08:57;4.35;;;1.30;;
81056;SDS011;70563;50.084;14.468;2023-10-31T14:11:23;1.67;;;0.90;;
81056;SDS011;70563;50.084;14.468;2023-10-31T14:13:48;1.35;;;0.90;;
81056;SDS011;70563;50.084;14.468;2023-10-31T14:16:15;1.05;;;0.70;;
81056;SDS011;70563;50.084;14.468;2023-10-31T14:18:40;2.17;;;0.70;;
81056;SDS011;70563;50.084;14.468;2023-10-31T14:21:07;3.97;;;0.82;;
81056;SDS011;70563;50.084;14.468;2023-10-31T14:23:33;1.90;;;1.05;;
81056;SDS011;70563;50.084;14.468;2023-10-31T14:25:59;0.82;;;0.68;;
81056;SDS011;70563;50.084;14.468;2023-10-31T14:28:24;5.13;;;0.90;;
81056;SDS011;70563;50.084;14.468;2023-10-31T14:30:50;2.30;;;0.75;;
81056;SDS011;70563;50.084;14.468;2023-10-31T14:33:17;2.20;;;1.00;;
81056;SDS011;70563;50.084;14.468;2023-10-31T14:35:43;2.47;;;0.80;;
81056;SDS011;70563;50.084;14.468;2023-10-31T14:38:08;1.58;;;0.88;;
81056;SDS011;70563;50.084;14.468;2023-10-31T14:40:38;1.80;;;0.80;;
81056;SDS011;70563;50.084;14.468;2023-10-31T14:43:03;3.60;;;1.40;;
81056;SDS011;70563;50.084;14.468;2023-10-31T14:45:29;1.45;;;0.90;;